SCAH weather

Tolquien Airport
Achao, Los Lagos Region, Chile

Public forecast

Using degrees Celsius for public forecast. Weather courtesy of forecast.io.

Closest aviation weather report (METAR) to Tolquien Airport

Closest report is Mocopulli Airport, 10.7 nm (19.8 km) NW. Retrieved 2019/10/16 18:00 UTC (27 minutes ago):

SCPQ 161800Z 32015KT 290V360 9999 FEW040 14/02 Q1016

Closest aviation forecast (TAF) to Tolquien Airport

Forecast is more than 6 hours old.

Closest forecast is Mocopulli Airport, 10.7 nm (19.8 km) NW. Retrieved 2019/10/16 12:00 UTC (6 hours ago):

TAF SCPQ 161026Z 1612/1624 VRB03KT 5000 BR SCT025 SCT035 TN07/1612Z TX16/1618Z BECMG 1612/1614 35012KT 9999 NSW TEMPO 1615/1617 35012G22KT FEW020 BKN030 BECMG 1618/1620 34013G23KT FEW045 BECMG 1622/1624 36005KT CAVOK